Terminal Aerodrome Forecast
Issued by NWS

Home | Current Version | Previous Version | Text Only | Print | Product List | Glossary On
Versions: 1 2 3 4 5 6 7 8 9 10 11 12 13 14 15 16
948
FTPA31 PHFO 011740
TAFHNY
TAF
PHNY 011740Z 0118/0218 18018G24KT P6SM -SHRA VCTS BKN012CB OVC020
      TEMPO 0119/0123 VRB25G35KT 2SM +TSRA BKN005CB OVC012
     FM020300 19014KT P6SM -SHRA SCT012 OVC020=

USA.gov is the U.S. government's official web portal to all federal, state and local government web resources and services.